sensor_id;sensor_type;location;lat;lon;timestamp;pressure;altitude;pressure_sealevel;temperature;humidity
12073;BME280;6098;49.004;8.372;2022-08-11T00:03:42;100660.41;;;24.63;32.95
12073;BME280;6098;49.004;8.372;2022-08-11T00:18:42;100657.91;;;24.47;33.28
12073;BME280;6098;49.004;8.372;2022-08-11T00:33:39;100659.34;;;24.36;33.80
12073;BME280;6098;49.004;8.372;2022-08-11T01:04:13;100668.70;;;23.73;35.29
12073;BME280;6098;49.004;8.372;2022-08-11T01:19:24;100669.85;;;23.45;35.64
12073;BME280;6098;49.004;8.372;2022-08-11T01:34:49;100670.14;;;23.26;36.07
12073;BME280;6098;49.004;8.372;2022-08-11T01:49:45;100669.19;;;23.11;36.55
12073;BME280;6098;49.004;8.372;2022-08-11T02:20:03;100660.15;;;22.65;37.69
12073;BME280;6098;49.004;8.372;2022-08-11T02:35:47;100667.23;;;22.50;38.00
12073;BME280;6098;49.004;8.372;2022-08-11T02:50:51;100662.08;;;22.31;38.37
12073;BME280;6098;49.004;8.372;2022-08-11T03:05:59;100662.54;;;22.04;38.74
12073;BME280;6098;49.004;8.372;2022-08-11T03:21:23;100669.38;;;21.97;39.09
12073;BME280;6098;49.004;8.372;2022-08-11T04:37:42;100679.38;;;21.34;41.25
12073;BME280;6098;49.004;8.372;2022-08-11T05:23:29;100701.27;;;21.36;41.98
12073;BME280;6098;49.004;8.372;2022-08-11T05:38:27;100701.39;;;21.35;42.08
12073;BME280;6098;49.004;8.372;2022-08-11T05:53:46;100707.23;;;21.52;42.05
12073;BME280;6098;49.004;8.372;2022-08-11T06:09:03;100712.91;;;21.71;42.01
12073;BME280;6098;49.004;8.372;2022-08-11T06:23:55;100714.28;;;21.98;41.88
12073;BME280;6098;49.004;8.372;2022-08-11T06:38:57;100719.05;;;22.34;41.15
12073;BME280;6098;49.004;8.372;2022-08-11T06:53:50;100724.07;;;22.70;40.52
12073;BME280;6098;49.004;8.372;2022-08-11T07:09:02;100716.59;;;23.10;40.22
12073;BME280;6098;49.004;8.372;2022-08-11T07:24:16;100712.02;;;23.58;39.23
12073;BME280;6098;49.004;8.372;2022-08-11T07:39:32;100703.64;;;23.91;38.87
12073;BME280;6098;49.004;8.372;2022-08-11T07:54:26;100693.76;;;24.30;38.61
12073;BME280;6098;49.004;8.372;2022-08-11T08:09:20;100691.89;;;24.70;38.11
12073;BME280;6098;49.004;8.372;2022-08-11T08:39:30;100690.54;;;25.65;36.43
12073;BME280;6098;49.004;8.372;2022-08-11T09:09:24;100687.14;;;26.49;34.98
12073;BME280;6098;49.004;8.372;2022-08-11T09:24:17;100687.02;;;26.81;33.93
12073;BME280;6098;49.004;8.372;2022-08-11T09:39:35;100680.56;;;27.09;33.26
12073;BME280;6098;49.004;8.372;2022-08-11T09:54:49;100685.55;;;27.30;33.08
12073;BME280;6098;49.004;8.372;2022-08-11T10:09:51;100678.17;;;27.66;31.30
12073;BME280;6098;49.004;8.372;2022-08-11T10:24:47;100651.63;;;27.98;30.14
12073;BME280;6098;49.004;8.372;2022-08-11T10:40:04;100642.98;;;28.31;30.08
12073;BME280;6098;49.004;8.372;2022-08-11T10:54:57;100621.00;;;28.45;28.60
12073;BME280;6098;49.004;8.372;2022-08-11T11:10:14;100600.55;;;28.82;28.38
12073;BME280;6098;49.004;8.372;2022-08-11T11:25:28;100595.97;;;29.38;26.11
12073;BME280;6098;49.004;8.372;2022-08-11T11:40:19;100575.98;;;29.73;25.31
12073;BME280;6098;49.004;8.372;2022-08-11T11:55:18;100570.11;;;30.18;25.14
12073;BME280;6098;49.004;8.372;2022-08-11T12:10:10;100535.55;;;30.48;24.52
12073;BME280;6098;49.004;8.372;2022-08-11T12:25:03;100531.17;;;30.80;23.35
12073;BME280;6098;49.004;8.372;2022-08-11T12:40:24;100516.56;;;31.06;23.01
12073;BME280;6098;49.004;8.372;2022-08-11T12:55:34;100503.52;;;31.30;22.14
12073;BME280;6098;49.004;8.372;2022-08-11T13:10:51;100486.22;;;31.66;22.02
12073;BME280;6098;49.004;8.372;2022-08-11T13:26:08;100464.81;;;31.73;21.70
12073;BME280;6098;49.004;8.372;2022-08-11T13:41:00;100451.30;;;32.00;21.25
12073;BME280;6098;49.004;8.372;2022-08-11T13:55:53;100435.16;;;32.22;21.20
12073;BME280;6098;49.004;8.372;2022-08-11T14:10:46;100426.58;;;32.49;21.19
12073;BME280;6098;49.004;8.372;2022-08-11T14:25:40;100401.11;;;32.76;20.29
12073;BME280;6098;49.004;8.372;2022-08-11T14:40:32;100398.29;;;32.80;20.61
12073;BME280;6098;49.004;8.372;2022-08-11T14:55:52;100382.77;;;33.14;19.91
12073;BME280;6098;49.004;8.372;2022-08-11T15:11:10;100360.75;;;33.37;19.32
12073;BME280;6098;49.004;8.372;2022-08-11T15:26:06;100350.94;;;33.79;18.84
12073;BME280;6098;49.004;8.372;2022-08-11T15:40:57;100339.13;;;34.01;19.27
12073;BME280;6098;49.004;8.372;2022-08-11T15:56:12;100329.67;;;33.73;18.69
12073;BME280;6098;49.004;8.372;2022-08-11T16:11:04;100325.36;;;32.91;19.12
12073;BME280;6098;49.004;8.372;2022-08-11T16:25:54;100321.87;;;32.25;19.63
12073;BME280;6098;49.004;8.372;2022-08-11T16:40:45;100318.37;;;31.88;20.23
12073;BME280;6098;49.004;8.372;2022-08-11T16:55:37;100304.81;;;31.56;20.11
12073;BME280;6098;49.004;8.372;2022-08-11T17:10:32;100303.48;;;31.34;20.47
12073;BME280;6098;49.004;8.372;2022-08-11T17:25:43;100286.50;;;31.14;21.53
12073;BME280;6098;49.004;8.372;2022-08-11T17:40:36;100294.64;;;30.89;21.55
12073;BME280;6098;49.004;8.372;2022-08-11T17:55:28;100296.69;;;30.62;22.00
12073;BME280;6098;49.004;8.372;2022-08-11T18:10:20;100305.54;;;30.35;22.28
12073;BME280;6098;49.004;8.372;2022-08-11T18:25:39;100316.28;;;30.10;23.16
12073;BME280;6098;49.004;8.372;2022-08-11T18:40:54;100311.11;;;29.78;23.45
12073;BME280;6098;49.004;8.372;2022-08-11T18:56:09;100326.71;;;29.47;23.72
12073;BME280;6098;49.004;8.372;2022-08-11T19:11:28;100335.97;;;29.15;24.11
12073;BME280;6098;49.004;8.372;2022-08-11T19:26:43;100344.52;;;28.85;24.49
12073;BME280;6098;49.004;8.372;2022-08-11T19:41:58;100352.13;;;28.55;24.75
12073;BME280;6098;49.004;8.372;2022-08-11T19:57:14;100359.23;;;28.24;25.46
12073;BME280;6098;49.004;8.372;2022-08-11T20:12:30;100351.02;;;27.97;26.07
12073;BME280;6098;49.004;8.372;2022-08-11T20:27:46;100360.09;;;27.73;26.64
12073;BME280;6098;49.004;8.372;2022-08-11T20:43:01;100363.55;;;27.50;26.75
12073;BME280;6098;49.004;8.372;2022-08-11T20:58:16;100375.62;;;27.26;27.25
12073;BME280;6098;49.004;8.372;2022-08-11T21:13:29;100384.14;;;27.03;27.71
12073;BME280;6098;49.004;8.372;2022-08-11T21:28:43;100382.98;;;26.75;28.04
12073;BME280;6098;49.004;8.372;2022-08-11T21:43:59;100383.45;;;26.45;28.80
12073;BME280;6098;49.004;8.372;2022-08-11T21:59:19;100377.13;;;26.24;29.43
12073;BME280;6098;49.004;8.372;2022-08-11T22:14:31;100378.72;;;26.09;30.14
12073;BME280;6098;49.004;8.372;2022-08-11T22:29:46;100367.97;;;25.98;29.40
12073;BME280;6098;49.004;8.372;2022-08-11T22:45:11;100359.23;;;25.78;30.40
12073;BME280;6098;49.004;8.372;2022-08-11T23:00:26;100364.06;;;25.35;31.37
12073;BME280;6098;49.004;8.372;2022-08-11T23:15:48;100371.73;;;24.95;31.90
12073;BME280;6098;49.004;8.372;2022-08-11T23:31:02;100372.63;;;24.49;32.35
12073;BME280;6098;49.004;8.372;2022-08-11T23:46:20;100364.80;;;24.23;32.59
